Terminal Aerodrome Forecast
Issued by NWS Upton, NY

Home | Current Version | Previous Version | Text Only | Print | Product List | Glossary On
Versions: 1 2 3 4 5 6 7 8 9 10 11 12 13 14 15 16 17 18 19 20 21 22 23 24 25 26 27 28 29 30 31 32 33
000
FTUS41 KOKX 050529
TAFBDR
TAF
KBDR 050529Z 0506/0606 04014KT P6SM OVC015
     FM050900 02013KT P6SM SCT008 OVC015
      TEMPO 0509/0512 BKN008
     FM051300 02014G19KT P6SM OVC015
     FM051700 01017G24KT P6SM OVC015
     FM060000 03014KT P6SM OVC015=

USA.gov is the U.S. government's official web portal to all federal, state and local government web resources and services.